Time;durP1;ratioP1;P1;durP2;ratioP2;P2;SDS_P1;SDS_P2;PMS_P1;PMS_P2;Temp;Humidity;BMP_temperature;BMP_pressure;BME280_temperature;BME280_humidity;BME280_pressure;Samples;Min_cycle;Max_cycle;Signal;HPM_P1;HPM_P2
2022/12/02 00:01:10;;;;;;;104.50;19.52;;;5.50;99.90;;;;;;5046296;28;20193;-85
2022/12/02 00:03:36;;;;;;;106.07;20.25;;;5.50;99.90;;;;;;5041045;28;20542;-84
2022/12/02 00:06:03;;;;;;;100.57;17.23;;;5.50;99.90;;;;;;5039319;28;20260;-85
2022/12/02 00:08:31;;;;;;;101.88;21.80;;;5.60;99.90;;;;;;5040477;28;20463;-84
2022/12/02 00:11:01;;;;;;;98.35;19.65;;;5.60;99.90;;;;;;5039109;28;20736;-85
2022/12/02 00:13:43;;;;;;;98.43;19.88;;;5.60;99.90;;;;;;5039340;28;20204;-85
2022/12/02 00:16:21;;;;;;;100.45;21.73;;;5.50;99.90;;;;;;5040738;28;20196;-84
2022/12/02 00:18:48;;;;;;;103.47;19.05;;;5.50;99.90;;;;;;5039629;28;20204;-85
2022/12/02 00:21:13;;;;;;;92.75;17.70;;;5.60;99.90;;;;;;5040574;28;20181;-85
2022/12/02 00:23:39;;;;;;;94.77;16.50;;;5.60;99.90;;;;;;5038907;28;20201;-85
2022/12/02 00:26:05;;;;;;;99.50;19.77;;;5.60;99.90;;;;;;5039318;28;20169;-85
2022/12/02 00:28:31;;;;;;;100.03;20.10;;;5.60;99.90;;;;;;5039426;28;20668;-85
2022/12/02 00:30:56;;;;;;;106.17;22.03;;;5.60;99.90;;;;;;5039732;28;20424;-85
2022/12/02 00:33:22;;;;;;;102.07;20.60;;;5.60;99.90;;;;;;5038959;28;20173;-84
2022/12/02 00:35:48;;;;;;;97.30;20.03;;;5.50;99.90;;;;;;5039179;28;20172;-83
2022/12/02 00:38:13;;;;;;;103.80;20.10;;;5.60;99.90;;;;;;5038505;28;20219;-84
2022/12/02 00:40:39;;;;;;;106.77;22.17;;;5.60;99.90;;;;;;5039228;28;20193;-84
2022/12/02 00:48:34;;;;;;;103.85;19.73;;;5.50;99.90;;;;;;5039650;28;20192;-85
2022/12/02 00:51:00;;;;;;;107.95;22.48;;;5.50;99.90;;;;;;5040241;28;20543;-84
2022/12/02 00:53:26;;;;;;;99.22;20.88;;;5.40;99.90;;;;;;5023141;28;20231;-85
2022/12/02 00:55:51;;;;;;;108.33;20.43;;;5.40;99.90;;;;;;5038732;28;20181;-84
2022/12/02 00:58:17;;;;;;;94.33;17.47;;;5.40;99.90;;;;;;5038964;28;20165;-84
2022/12/02 01:00:43;;;;;;;98.40;19.87;;;5.40;99.90;;;;;;5039665;28;20192;-84
2022/12/02 01:03:09;;;;;;;98.53;21.37;;;5.40;99.90;;;;;;5038721;28;20165;-84
2022/12/02 01:05:34;;;;;;;95.70;19.05;;;5.30;99.90;;;;;;5039878;28;20177;-85
2022/12/02 01:08:00;;;;;;;96.90;19.30;;;5.30;99.90;;;;;;5039380;28;20193;-85
2022/12/02 01:10:26;;;;;;;101.93;21.70;;;5.30;99.90;;;;;;5038458;28;20273;-85
2022/12/02 01:12:52;;;;;;;95.00;18.83;;;5.30;99.90;;;;;;5039746;28;20265;-85
2022/12/02 01:15:17;;;;;;;105.27;22.30;;;5.10;99.90;;;;;;5038667;28;20165;-85
2022/12/02 01:17:43;;;;;;;95.47;19.17;;;5.10;99.90;;;;;;5038937;28;20192;-85
2022/12/02 01:20:09;;;;;;;97.93;20.00;;;5.20;99.90;;;;;;5039369;28;20620;-85
2022/12/02 01:22:35;;;;;;;90.85;18.13;;;5.10;99.90;;;;;;5039783;28;20172;-85
2022/12/02 01:25:00;;;;;;;97.30;20.03;;;5.10;99.90;;;;;;5038293;28;20173;-84
2022/12/02 01:27:26;;;;;;;91.47;17.77;;;5.10;99.90;;;;;;5038352;28;20193;-85
2022/12/02 01:29:52;;;;;;;90.10;16.77;;;5.10;99.90;;;;;;5038234;28;20582;-85
2022/12/02 01:32:18;;;;;;;91.87;18.30;;;5.10;99.90;;;;;;5039546;28;20193;-85
2022/12/02 01:34:44;;;;;;;92.97;18.08;;;5.10;99.90;;;;;;5039824;28;20157;-85
2022/12/02 01:37:10;;;;;;;90.35;16.95;;;5.00;99.90;;;;;;5039082;28;20173;-85
2022/12/02 01:39:36;;;;;;;86.97;15.10;;;4.90;99.90;;;;;;5039608;28;20176;-85
2022/12/02 01:42:02;;;;;;;88.90;16.37;;;5.00;99.90;;;;;;5038039;28;20192;-84
2022/12/02 01:44:28;;;;;;;89.68;17.40;;;5.00;99.90;;;;;;5037719;28;20416;-85
2022/12/02 01:46:54;;;;;;;91.80;17.60;;;5.10;99.90;;;;;;5037758;28;20172;-84
2022/12/02 01:49:20;;;;;;;89.40;15.73;;;5.00;99.90;;;;;;5037970;28;20438;-84
2022/12/02 01:51:46;;;;;;;88.57;17.23;;;5.10;99.90;;;;;;5042352;28;20181;-84
2022/12/02 01:54:12;;;;;;;97.20;17.60;;;5.00;99.90;;;;;;5043644;28;20634;-85
2022/12/02 01:56:38;;;;;;;86.87;15.67;;;5.00;99.90;;;;;;5043832;28;20383;-85
2022/12/02 01:59:04;;;;;;;92.70;19.40;;;5.00;99.90;;;;;;5043035;28;20165;-85
2022/12/02 02:01:34;;;;;;;90.67;16.80;;;5.00;99.90;;;;;;5042822;28;20181;-85
2022/12/02 02:04:01;;;;;;;94.30;20.58;;;5.00;99.90;;;;;;5043602;28;20172;-85
2022/12/02 02:06:31;;;;;;;95.10;16.52;;;4.90;99.90;;;;;;5042658;28;20172;-84
2022/12/02 02:08:57;;;;;;;88.13;15.63;;;4.80;99.90;;;;;;5043468;28;20193;-85
2022/12/02 02:11:24;;;;;;;84.82;15.95;;;4.90;99.90;;;;;;5043292;28;20181;-85
2022/12/02 02:13:50;;;;;;;87.35;15.52;;;5.00;99.90;;;;;;5041185;28;20165;-85
2022/12/02 02:16:16;;;;;;;87.15;16.20;;;5.00;99.90;;;;;;5043245;28;20169;-84
2022/12/02 02:18:41;;;;;;;89.40;16.70;;;5.10;99.90;;;;;;5042173;28;20196;-84
2022/12/02 02:21:16;;;;;;;95.43;18.80;;;5.00;99.90;;;;;;5042585;28;20189;-85
2022/12/02 02:23:42;;;;;;;90.22;16.50;;;5.00;99.90;;;;;;5042850;28;20942;-85
2022/12/02 02:26:08;;;;;;;92.77;17.77;;;4.90;99.90;;;;;;5042539;28;20157;-84
2022/12/02 02:28:34;;;;;;;95.00;18.13;;;4.90;99.90;;;;;;5042894;28;20554;-84
2022/12/02 02:31:00;;;;;;;94.30;16.53;;;4.80;99.90;;;;;;5040585;28;20189;-84
2022/12/02 02:33:28;;;;;;;91.97;16.40;;;4.90;99.90;;;;;;5043153;28;20400;-85
2022/12/02 02:35:54;;;;;;;89.95;15.40;;;4.90;99.90;;;;;;5041313;28;20412;-85
2022/12/02 02:38:25;;;;;;;92.17;16.87;;;4.90;99.90;;;;;;5041446;28;20541;-85
2022/12/02 02:40:52;;;;;;;88.55;16.92;;;4.90;99.90;;;;;;5041912;28;20442;-84
2022/12/02 02:43:20;;;;;;;88.72;16.60;;;4.90;99.90;;;;;;5041443;28;20173;-85
2022/12/02 02:45:48;;;;;;;87.47;15.05;;;4.90;99.90;;;;;;5040674;28;20169;-85
2022/12/02 02:48:16;;;;;;;86.85;15.80;;;4.90;99.90;;;;;;5040458;28;20189;-84
2022/12/02 02:50:44;;;;;;;86.20;17.83;;;5.00;99.90;;;;;;5041606;28;20177;-85
2022/12/02 02:53:10;;;;;;;89.65;17.08;;;5.10;99.90;;;;;;5041056;28;20173;-84
2022/12/02 02:55:36;;;;;;;89.32;16.00;;;5.10;99.90;;;;;;5042780;28;20188;-84
2022/12/02 02:58:13;;;;;;;91.37;16.30;;;5.20;99.90;;;;;;5041492;28;20165;-84
2022/12/02 03:00:47;;;;;;;89.53;15.63;;;5.20;99.90;;;;;;5040658;28;20429;-84
2022/12/02 03:03:15;;;;;;;90.28;16.60;;;5.10;99.90;;;;;;5040564;28;20154;-84
2022/12/02 03:05:45;;;;;;;89.57;15.75;;;5.20;99.90;;;;;;5041337;28;20196;-84
2022/12/02 03:08:11;;;;;;;89.60;15.02;;;5.10;99.90;;;;;;5040502;28;20258;-85
2022/12/02 03:10:37;;;;;;;93.80;16.90;;;5.20;99.90;;;;;;5040884;28;20710;-84
2022/12/02 03:13:03;;;;;;;86.65;16.48;;;5.20;99.90;;;;;;5040927;28;20751;-84
2022/12/02 03:15:29;;;;;;;88.13;15.67;;;5.20;99.90;;;;;;5040807;28;20176;-84
2022/12/02 03:17:55;;;;;;;85.43;15.80;;;5.20;99.90;;;;;;5040171;28;20407;-84
2022/12/02 03:20:22;;;;;;;83.10;14.60;;;5.20;99.90;;;;;;5041433;28;20440;-84
2022/12/02 03:22:48;;;;;;;86.75;15.68;;;5.10;99.90;;;;;;5041097;28;20169;-84
2022/12/02 03:25:14;;;;;;;88.05;15.52;;;5.10;99.90;;;;;;5040596;28;20181;-84
2022/12/02 03:27:40;;;;;;;88.50;15.70;;;5.10;99.90;;;;;;5041018;28;20594;-85
2022/12/02 03:30:06;;;;;;;91.60;15.80;;;5.00;99.90;;;;;;5040360;28;20192;-85
2022/12/02 03:32:32;;;;;;;88.78;15.60;;;5.10;99.90;;;;;;5041580;28;20400;-85
2022/12/02 03:34:59;;;;;;;86.40;15.43;;;5.00;99.90;;;;;;5041175;28;20607;-84
2022/12/02 03:37:25;;;;;;;92.13;16.25;;;5.00;99.90;;;;;;5040440;28;20828;-84
2022/12/02 03:39:51;;;;;;;88.77;15.77;;;5.10;99.90;;;;;;5039981;28;20189;-85
2022/12/02 03:42:17;;;;;;;89.93;17.08;;;5.10;99.90;;;;;;5040431;28;20836;-85
2022/12/02 03:44:43;;;;;;;91.55;17.25;;;5.10;99.90;;;;;;5041751;28;20173;-85
2022/12/02 03:47:09;;;;;;;95.40;18.47;;;5.10;99.90;;;;;;5040675;28;20211;-84
2022/12/02 03:49:35;;;;;;;93.20;18.55;;;5.10;99.90;;;;;;5039440;28;20630;-85
2022/12/02 03:52:01;;;;;;;90.55;18.20;;;5.10;99.90;;;;;;5039935;28;20264;-84
2022/12/02 03:54:27;;;;;;;88.47;16.67;;;5.10;99.90;;;;;;5039585;28;20670;-85
2022/12/02 03:56:52;;;;;;;84.87;16.53;;;5.20;99.90;;;;;;5040693;28;20188;-85
2022/12/02 03:59:26;;;;;;;93.00;17.23;;;5.20;99.90;;;;;;5040864;28;20395;-85
2022/12/02 04:01:52;;;;;;;88.40;16.05;;;5.20;99.90;;;;;;5039691;28;20165;-85
2022/12/02 04:04:18;;;;;;;92.07;16.58;;;5.20;99.90;;;;;;5039482;28;20260;-85
2022/12/02 04:06:44;;;;;;;91.67;17.37;;;5.10;99.90;;;;;;5038753;28;20216;-85
2022/12/02 04:09:09;;;;;;;90.30;16.40;;;5.10;99.90;;;;;;5040870;28;20192;-85
2022/12/02 04:11:35;;;;;;;90.30;17.90;;;5.10;99.90;;;;;;5040276;28;20191;-84
2022/12/02 04:14:00;;;;;;;92.43;17.17;;;5.10;99.90;;;;;;5039922;28;20161;-85
2022/12/02 04:16:26;;;;;;;88.00;15.67;;;5.10;99.90;;;;;;5039300;28;20165;-84
2022/12/02 04:18:52;;;;;;;90.40;17.77;;;5.20;99.90;;;;;;5040623;28;20170;-85
2022/12/02 04:21:18;;;;;;;95.23;17.23;;;5.20;99.90;;;;;;5039652;28;20507;-85
2022/12/02 04:23:43;;;;;;;86.77;15.77;;;5.20;99.90;;;;;;5039472;28;20165;-85
2022/12/02 04:26:09;;;;;;;90.23;17.77;;;5.10;99.90;;;;;;5040232;28;20168;-83
2022/12/02 04:28:35;;;;;;;90.47;19.20;;;5.10;99.90;;;;;;5039155;28;20598;-84
2022/12/02 04:31:00;;;;;;;96.23;19.93;;;5.10;99.90;;;;;;5039612;28;20177;-84
2022/12/02 04:33:27;;;;;;;92.80;18.77;;;5.10;99.90;;;;;;5039605;28;20164;-84
2022/12/02 04:35:53;;;;;;;88.97;15.93;;;5.10;99.90;;;;;;5039343;28;20166;-83
2022/12/02 04:38:21;;;;;;;94.90;16.87;;;5.10;99.90;;;;;;5038834;28;20226;-83
2022/12/02 04:40:47;;;;;;;94.97;17.35;;;5.20;99.90;;;;;;5038559;28;20204;-83
2022/12/02 04:43:13;;;;;;;93.50;19.60;;;5.20;99.90;;;;;;5040654;28;20173;-84
2022/12/02 04:45:39;;;;;;;95.80;17.17;;;5.20;99.90;;;;;;5040066;28;20169;-83
2022/12/02 04:48:05;;;;;;;97.40;19.27;;;5.10;99.90;;;;;;5039910;28;20196;-84
2022/12/02 04:50:31;;;;;;;88.53;16.33;;;5.10;99.90;;;;;;5039015;28;20185;-84
2022/12/02 04:52:56;;;;;;;91.43;17.50;;;5.00;99.90;;;;;;5039404;28;20188;-84
2022/12/02 04:55:22;;;;;;;89.70;16.80;;;5.10;99.90;;;;;;5037538;28;20428;-84
2022/12/02 04:57:48;;;;;;;93.00;17.70;;;5.10;99.90;;;;;;5037987;28;20219;-83
2022/12/02 05:00:14;;;;;;;93.87;18.00;;;5.10;99.90;;;;;;5038943;28;20265;-83
2022/12/02 05:02:40;;;;;;;94.22;18.83;;;5.10;99.90;;;;;;5039727;28;20196;-84
2022/12/02 05:05:09;;;;;;;94.37;19.50;;;5.10;99.90;;;;;;5039564;28;20165;-85
2022/12/02 05:07:34;;;;;;;95.57;18.13;;;5.00;99.90;;;;;;5039125;28;20189;-83
2022/12/02 05:10:00;;;;;;;96.07;18.23;;;4.90;99.90;;;;;;5039795;28;20191;-84
2022/12/02 05:12:26;;;;;;;91.63;16.90;;;5.00;99.90;;;;;;5037245;28;20177;-83
2022/12/02 05:14:51;;;;;;;93.37;19.33;;;4.90;99.90;;;;;;5039272;28;20431;-83
2022/12/02 05:17:18;;;;;;;94.87;16.80;;;4.90;99.90;;;;;;5038208;28;20169;-84
2022/12/02 05:19:43;;;;;;;96.88;20.35;;;4.80;99.90;;;;;;5037825;28;20193;-84
2022/12/02 05:22:09;;;;;;;93.80;17.57;;;4.80;99.90;;;;;;5039865;28;20245;-84
2022/12/02 05:24:35;;;;;;;93.60;18.73;;;4.90;99.90;;;;;;5038492;28;20241;-84
2022/12/02 05:27:01;;;;;;;96.63;20.43;;;4.90;99.90;;;;;;5039517;28;20233;-84
2022/12/02 05:29:26;;;;;;;94.47;20.47;;;4.90;99.90;;;;;;5039307;28;20684;-83
2022/12/02 05:31:52;;;;;;;93.27;19.90;;;4.90;99.90;;;;;;5038295;28;20165;-84
2022/12/02 05:34:18;;;;;;;96.20;19.57;;;4.90;99.90;;;;;;5039404;28;20172;-84
2022/12/02 05:36:43;;;;;;;94.60;19.07;;;4.90;99.90;;;;;;5038743;28;20279;-84
2022/12/02 05:39:10;;;;;;;105.20;22.03;;;4.90;99.90;;;;;;5037848;28;20201;-85
2022/12/02 05:41:37;;;;;;;101.68;21.33;;;4.90;99.90;;;;;;5037880;28;20435;-84
2022/12/02 05:44:20;;;;;;;100.65;18.90;;;5.00;99.90;;;;;;5039726;28;20168;-84
2022/12/02 05:46:46;;;;;;;101.35;19.48;;;5.00;99.90;;;;;;5037711;28;20180;-85
2022/12/02 05:49:21;;;;;;;100.22;21.40;;;4.90;99.90;;;;;;5037276;28;20176;-82
2022/12/02 05:51:54;;;;;;;93.65;19.27;;;5.00;99.90;;;;;;5037172;28;20187;-83
2022/12/02 05:56:48;;;;;;;97.45;18.75;;;5.00;99.90;;;;;;5075829;28;20214;-83
2022/12/02 05:59:16;;;;;;;100.40;19.70;;;4.90;99.90;;;;;;5078073;28;20167;-83
2022/12/02 06:01:45;;;;;;;94.93;19.17;;;4.90;99.90;;;;;;5059408;28;20218;-84
2022/12/02 06:04:17;;;;;;;103.90;21.23;;;4.90;99.90;;;;;;5058665;28;20161;-84
2022/12/02 06:06:43;;;;;;;105.28;20.30;;;4.90;99.90;;;;;;5041832;28;20653;-83
2022/12/02 06:09:17;;;;;;;98.73;19.87;;;4.90;99.90;;;;;;5058826;28;20196;-84
2022/12/02 06:11:45;;;;;;;100.40;19.85;;;4.80;99.90;;;;;;5057819;28;20475;-84
2022/12/02 06:14:21;;;;;;;97.38;17.80;;;4.80;99.90;;;;;;5058063;28;20642;-84
2022/12/02 06:17:00;;;;;;;98.85;20.45;;;4.80;99.90;;;;;;5059311;28;20161;-84
2022/12/02 06:19:47;;;;;;;102.35;20.75;;;4.90;99.90;;;;;;5059056;28;20156;-84
2022/12/02 06:22:25;;;;;;;97.38;19.15;;;4.90;99.90;;;;;;5057852;28;20164;-84
2022/12/02 06:24:54;;;;;;;99.03;20.67;;;4.90;99.90;;;;;;5059096;28;20165;-84
2022/12/02 06:27:21;;;;;;;106.07;23.17;;;4.90;99.90;;;;;;5058645;28;20192;-84
2022/12/02 06:29:53;;;;;;;96.80;17.95;;;4.90;99.90;;;;;;5059286;28;20176;-84
2022/12/02 06:32:21;;;;;;;99.05;20.90;;;5.00;99.90;;;;;;5059107;28;20149;-84
2022/12/02 06:34:49;;;;;;;99.47;20.20;;;5.00;99.90;;;;;;5059052;28;20646;-83
2022/12/02 06:37:22;;;;;;;98.88;21.35;;;4.90;99.90;;;;;;5059236;28;20183;-84
2022/12/02 06:39:54;;;;;;;102.90;21.83;;;4.90;99.90;;;;;;5062696;28;20673;-84
2022/12/02 06:42:33;;;;;;;94.22;19.70;;;5.00;99.90;;;;;;5044932;28;20191;-84
2022/12/02 06:45:24;;;;;;;99.35;19.80;;;5.00;99.90;;;;;;5062836;28;20164;-84
2022/12/02 06:48:02;;;;;;;98.35;19.25;;;5.00;99.90;;;;;;5055835;28;20212;-84
2022/12/02 06:50:32;;;;;;;111.78;25.08;;;5.00;99.90;;;;;;5060855;28;20195;-84
2022/12/02 06:53:24;;;;;;;103.20;22.25;;;5.00;99.90;;;;;;5060695;28;20169;-85
2022/12/02 06:55:57;;;;;;;106.53;22.23;;;5.00;99.90;;;;;;5061482;28;20180;-84
2022/12/02 06:58:36;;;;;;;103.93;20.55;;;5.00;99.90;;;;;;5060455;28;20164;-84
2022/12/02 07:01:27;;;;;;;103.28;19.75;;;5.00;99.90;;;;;;5061770;28;20184;-84
2022/12/02 07:04:39;;;;;;;109.57;22.30;;;4.90;99.90;;;;;;5053686;28;20248;-84
2022/12/02 07:07:11;;;;;;;101.38;22.02;;;4.90;99.90;;;;;;5060144;28;20175;-84
2022/12/02 07:09:41;;;;;;;103.78;21.27;;;5.00;99.90;;;;;;5060190;28;20163;-84
2022/12/02 07:12:20;;;;;;;106.20;22.10;;;5.00;99.90;;;;;;5059866;28;20218;-84
2022/12/02 07:14:51;;;;;;;101.05;20.55;;;4.90;99.90;;;;;;5059785;28;20156;-85
2022/12/02 07:17:31;;;;;;;106.50;23.00;;;4.90;99.90;;;;;;5061495;28;20222;-85
2022/12/02 07:20:10;;;;;;;107.82;22.40;;;4.90;99.90;;;;;;5059572;28;20271;-84
2022/12/02 07:22:45;;;;;;;105.25;19.83;;;5.00;99.90;;;;;;5058936;28;20171;-85
2022/12/02 07:25:30;;;;;;;105.68;21.25;;;4.90;99.90;;;;;;5061276;28;20213;-85
2022/12/02 07:27:56;;;;;;;105.10;21.67;;;5.00;99.90;;;;;;5060727;28;20183;-84
2022/12/02 07:30:27;;;;;;;101.37;20.93;;;5.00;99.90;;;;;;5060503;28;20208;-84
2022/12/02 07:32:53;;;;;;;109.32;21.42;;;4.90;99.90;;;;;;5061178;28;20171;-83
2022/12/02 07:35:21;;;;;;;114.57;22.27;;;4.80;99.90;;;;;;5061105;28;20149;-84
2022/12/02 07:37:47;;;;;;;119.35;24.77;;;4.90;99.90;;;;;;5059436;28;20426;-84
2022/12/02 07:40:15;;;;;;;111.95;21.27;;;4.80;99.90;;;;;;5059741;28;20695;-85
2022/12/02 07:42:42;;;;;;;109.40;21.67;;;4.80;99.90;;;;;;5059852;28;20694;-85
2022/12/02 07:45:09;;;;;;;109.50;23.50;;;4.80;99.90;;;;;;5061994;28;20263;-85
2022/12/02 07:47:34;;;;;;;115.45;23.13;;;4.90;99.90;;;;;;5060420;28;20184;-85
2022/12/02 07:50:00;;;;;;;108.93;22.30;;;4.90;99.90;;;;;;5061061;28;20180;-85
2022/12/02 07:52:26;;;;;;;106.23;20.63;;;5.00;99.90;;;;;;5060181;28;20172;-85
2022/12/02 07:54:53;;;;;;;108.10;22.03;;;5.00;99.90;;;;;;5061822;28;20426;-85
2022/12/02 07:57:19;;;;;;;104.15;22.50;;;5.00;99.90;;;;;;5061506;28;20656;-86
2022/12/02 07:59:45;;;;;;;109.43;23.48;;;5.00;99.90;;;;;;5059539;28;20226;-86
2022/12/02 08:02:11;;;;;;;110.45;22.80;;;4.90;99.90;;;;;;5060576;28;20650;-86
2022/12/02 08:04:37;;;;;;;112.97;25.80;;;4.90;99.90;;;;;;5060189;28;20175;-86
2022/12/02 08:07:03;;;;;;;116.03;26.37;;;4.80;99.90;;;;;;5058683;28;20461;-85
2022/12/02 08:09:28;;;;;;;116.90;28.27;;;4.80;99.90;;;;;;5060059;28;20171;-86
2022/12/02 08:11:54;;;;;;;107.67;25.97;;;4.80;99.90;;;;;;5059185;28;20157;-86
2022/12/02 08:14:20;;;;;;;107.33;27.20;;;4.80;99.90;;;;;;5058879;28;20515;-85
2022/12/02 08:16:45;;;;;;;105.47;29.07;;;4.80;99.90;;;;;;5057994;28;20526;-86
2022/12/02 08:19:11;;;;;;;112.90;27.90;;;4.70;99.90;;;;;;5058458;28;20492;-84
2022/12/02 08:21:39;;;;;;;107.67;28.00;;;4.70;99.90;;;;;;5058316;28;20191;-85
2022/12/02 08:24:05;;;;;;;100.90;29.98;;;4.60;99.90;;;;;;5056718;28;20164;-86
2022/12/02 08:26:31;;;;;;;96.35;27.35;;;4.60;99.90;;;;;;5058083;28;20684;-86
2022/12/02 08:28:56;;;;;;;99.13;28.90;;;4.40;99.90;;;;;;5057000;28;20231;-85
2022/12/02 08:31:22;;;;;;;108.03;29.17;;;4.40;99.90;;;;;;5058520;28;20665;-85
2022/12/02 08:33:49;;;;;;;104.93;27.50;;;4.40;99.90;;;;;;5056952;28;20656;-86
2022/12/02 08:36:14;;;;;;;106.05;28.60;;;4.50;99.90;;;;;;5059054;28;20156;-85
2022/12/02 08:38:41;;;;;;;102.40;30.80;;;4.50;99.90;;;;;;5058203;28;20182;-85
2022/12/02 08:41:06;;;;;;;108.40;29.58;;;4.50;99.90;;;;;;5058289;28;20184;-86
2022/12/02 08:43:32;;;;;;;109.60;30.43;;;4.50;99.90;;;;;;5058691;28;20167;-85
2022/12/02 08:45:58;;;;;;;105.17;28.50;;;4.50;99.90;;;;;;5057471;28;20176;-86
2022/12/02 08:48:24;;;;;;;97.83;30.47;;;4.50;99.90;;;;;;5057890;28;20449;-85
2022/12/02 08:50:50;;;;;;;106.13;32.10;;;4.50;99.90;;;;;;5058668;28;20188;-86
2022/12/02 08:53:16;;;;;;;101.97;28.47;;;4.50;99.90;;;;;;5059148;28;20214;-86
2022/12/02 08:55:44;;;;;;;109.43;29.77;;;4.60;99.90;;;;;;5058266;28;20463;-85
2022/12/02 08:58:13;;;;;;;98.05;28.00;;;4.60;99.90;;;;;;5060663;28;20203;-86
2022/12/02 09:00:39;;;;;;;106.78;31.73;;;4.60;99.90;;;;;;5061402;28;20215;-86
2022/12/02 09:03:06;;;;;;;104.95;27.50;;;4.70;99.90;;;;;;5062852;28;20200;-85
2022/12/02 09:05:33;;;;;;;105.88;28.13;;;4.70;99.90;;;;;;5060454;28;20214;-85
2022/12/02 09:07:58;;;;;;;109.90;30.25;;;4.60;99.90;;;;;;5061231;28;20197;-84
2022/12/02 09:10:24;;;;;;;107.43;30.40;;;4.60;99.90;;;;;;5061572;28;20669;-85
2022/12/02 09:12:50;;;;;;;119.63;30.50;;;4.70;99.90;;;;;;5061177;28;20168;-85
2022/12/02 09:15:16;;;;;;;111.77;31.43;;;4.70;99.90;;;;;;5060896;28;20472;-85
2022/12/02 09:17:41;;;;;;;117.03;29.93;;;4.70;99.90;;;;;;5063982;28;20218;-85
2022/12/02 09:20:07;;;;;;;117.80;30.17;;;4.70;99.90;;;;;;5063629;28;20185;-85
2022/12/02 09:22:33;;;;;;;113.93;31.08;;;4.70;99.90;;;;;;5062516;28;20545;-85
2022/12/02 09:24:59;;;;;;;121.60;33.20;;;4.80;99.90;;;;;;5063209;28;20172;-86
2022/12/02 09:27:24;;;;;;;118.33;32.73;;;4.70;99.90;;;;;;5064123;28;20199;-86
2022/12/02 09:29:50;;;;;;;121.90;30.93;;;4.70;99.90;;;;;;5062190;28;20222;-86
2022/12/02 09:32:16;;;;;;;125.00;31.07;;;4.70;99.90;;;;;;5064248;28;20169;-85
2022/12/02 09:34:42;;;;;;;113.87;29.60;;;4.80;99.90;;;;;;5063827;28;20232;-86
2022/12/02 09:37:07;;;;;;;122.18;31.38;;;4.90;99.90;;;;;;5062001;28;20164;-85
2022/12/02 09:39:33;;;;;;;123.83;30.43;;;4.90;99.90;;;;;;5064328;28;20153;-86
2022/12/02 09:42:00;;;;;;;141.00;34.70;;;4.90;99.90;;;;;;5063896;28;20403;-86
2022/12/02 09:44:26;;;;;;;123.57;32.83;;;5.00;99.90;;;;;;5063615;28;20565;-86
2022/12/02 09:46:51;;;;;;;115.10;30.23;;;5.00;99.90;;;;;;5062994;28;20149;-86
2022/12/02 09:49:17;;;;;;;115.50;34.87;;;5.00;99.90;;;;;;5064148;28;20189;-85
2022/12/02 09:51:43;;;;;;;122.30;31.10;;;5.00;99.90;;;;;;5063185;28;20189;-86
2022/12/02 09:54:13;;;;;;;113.03;31.63;;;5.00;99.90;;;;;;5061918;28;20163;-86
2022/12/02 09:56:40;;;;;;;112.68;31.13;;;5.00;99.90;;;;;;5062815;28;20272;-86
2022/12/02 09:59:12;;;;;;;114.15;32.58;;;5.00;99.90;;;;;;5062811;28;20173;-85
2022/12/02 10:01:44;;;;;;;110.50;29.15;;;5.10;99.90;;;;;;5063009;28;20562;-84
2022/12/02 10:04:21;;;;;;;118.50;30.20;;;5.10;99.90;;;;;;5062767;28;20153;-84
2022/12/02 10:06:47;;;;;;;114.07;26.58;;;5.00;99.90;;;;;;5063053;28;20180;-85
2022/12/02 10:09:25;;;;;;;109.23;29.70;;;5.00;99.90;;;;;;5062997;28;20251;-85
2022/12/02 10:11:51;;;;;;;120.13;28.50;;;5.00;99.90;;;;;;5063808;28;20375;-85
2022/12/02 10:14:20;;;;;;;119.80;30.77;;;5.00;99.90;;;;;;5066450;28;20200;-85
2022/12/02 10:16:46;;;;;;;113.18;29.80;;;5.10;99.90;;;;;;5064864;28;20214;-85
2022/12/02 10:19:19;;;;;;;113.38;30.55;;;5.00;99.90;;;;;;5065514;28;20702;-85
2022/12/02 10:21:45;;;;;;;121.45;27.73;;;5.00;99.90;;;;;;5066699;28;20192;-85
2022/12/02 10:24:12;;;;;;;115.40;27.40;;;5.00;99.90;;;;;;5065440;28;20181;-85
2022/12/02 10:26:51;;;;;;;122.00;28.52;;;5.00;99.90;;;;;;5065205;28;20168;-85
2022/12/02 10:29:38;;;;;;;116.40;30.15;;;5.10;99.90;;;;;;5066030;28;20239;-85
2022/12/02 10:32:17;;;;;;;115.30;30.90;;;5.10;99.90;;;;;;5064868;28;20184;-85
2022/12/02 10:35:08;;;;;;;115.70;33.10;;;5.10;99.90;;;;;;5064775;28;20171;-84
2022/12/02 10:37:34;;;;;;;117.03;29.20;;;5.20;99.90;;;;;;5066331;28;20149;-85
2022/12/02 10:40:15;;;;;;;108.32;25.02;;;5.20;99.90;;;;;;5064009;28;20189;-85
2022/12/02 10:42:41;;;;;;;113.72;26.00;;;5.30;99.90;;;;;;5064509;28;20164;-85
2022/12/02 10:45:18;;;;;;;112.60;28.13;;;5.20;99.90;;;;;;5065633;28;20161;-85
2022/12/02 10:47:45;;;;;;;123.70;24.15;;;5.30;99.90;;;;;;5065440;28;20187;-86
2022/12/02 10:50:23;;;;;;;119.10;27.27;;;5.30;99.90;;;;;;5065890;28;20549;-86
2022/12/02 10:52:52;;;;;;;115.50;27.67;;;5.30;99.90;;;;;;5066513;28;20219;-86
2022/12/02 10:55:19;;;;;;;122.97;29.10;;;5.30;99.90;;;;;;5063939;28;20553;-86
2022/12/02 10:57:46;;;;;;;110.53;27.35;;;5.20;99.90;;;;;;5066096;28;20175;-86
2022/12/02 11:00:17;;;;;;;113.25;24.38;;;5.30;99.90;;;;;;5066354;28;20188;-86
2022/12/02 11:02:47;;;;;;;119.25;29.60;;;5.30;99.90;;;;;;5066231;28;20180;-86
2022/12/02 11:05:27;;;;;;;126.40;30.27;;;5.30;99.90;;;;;;5065658;28;20187;-86
2022/12/02 11:08:15;;;;;;;129.73;30.75;;;5.20;99.90;;;;;;5066797;28;20208;-86
2022/12/02 11:10:45;;;;;;;119.80;31.90;;;5.20;99.90;;;;;;5065662;28;20238;-86
2022/12/02 11:13:16;;;;;;;110.40;29.35;;;5.20;99.90;;;;;;5066445;28;20168;-86
2022/12/02 11:15:50;;;;;;;111.68;28.42;;;5.20;99.90;;;;;;5064007;28;20175;-86
2022/12/02 11:18:22;;;;;;;115.68;31.25;;;5.30;99.90;;;;;;5066104;28;20188;-85
2022/12/02 11:20:52;;;;;;;115.03;30.05;;;5.30;99.90;;;;;;5066994;28;20264;-86
2022/12/02 11:23:29;;;;;;;110.72;27.80;;;5.30;99.90;;;;;;5065455;28;20244;-85
2022/12/02 11:26:02;;;;;;;109.68;25.92;;;5.30;99.90;;;;;;5066934;28;20156;-85
2022/12/02 11:28:28;;;;;;;104.38;23.17;;;5.30;99.90;;;;;;5065616;28;20188;-85
2022/12/02 11:31:09;;;;;;;110.87;26.00;;;5.40;99.90;;;;;;5065687;28;20196;-86
2022/12/02 11:34:00;;;;;;;108.22;25.67;;;5.30;99.90;;;;;;5066003;28;20399;-86
2022/12/02 11:36:31;;;;;;;105.93;22.40;;;5.30;99.90;;;;;;5065983;28;20149;-85
2022/12/02 11:39:01;;;;;;;109.25;23.42;;;5.30;99.90;;;;;;5066982;28;20168;-86
2022/12/02 11:41:48;;;;;;;106.63;22.70;;;5.20;99.90;;;;;;5066157;28;20184;-86
2022/12/02 11:44:29;;;;;;;106.30;19.75;;;5.20;99.90;;;;;;5066341;28;20171;-85
2022/12/02 11:47:01;;;;;;;100.38;20.20;;;5.20;99.90;;;;;;5065638;28;20195;-85
2022/12/02 11:49:32;;;;;;;100.40;21.38;;;5.20;99.90;;;;;;5064683;28;20171;-85
2022/12/02 11:52:13;;;;;;;102.80;20.35;;;5.20;99.90;;;;;;5064652;28;20157;-85
2022/12/02 11:54:45;;;;;;;103.30;22.63;;;5.20;99.90;;;;;;5130575;23;20212;-85
2022/12/02 11:57:18;;;;;;;100.55;20.33;;;5.30;99.90;;;;;;5042282;28;20631;-84
2022/12/02 11:59:44;;;;;;;108.88;20.77;;;5.30;99.90;;;;;;5042541;28;20678;-85
2022/12/02 12:02:14;;;;;;;108.33;22.87;;;5.30;99.90;;;;;;5042559;28;20173;-85
2022/12/02 12:05:00;;;;;;;102.88;19.92;;;5.30;99.90;;;;;;5042204;28;20203;-85
2022/12/02 12:07:47;;;;;;;106.45;21.65;;;5.30;99.90;;;;;;5041884;28;20578;-84
2022/12/02 12:10:31;;;;;;;108.55;21.52;;;5.30;99.90;;;;;;5040406;28;20239;-85
2022/12/02 12:13:24;;;;;;;117.70;24.17;;;5.30;99.90;;;;;;5041599;28;20165;-84
2022/12/02 12:15:57;;;;;;;99.63;21.77;;;5.30;99.90;;;;;;5042211;28;20236;-85
2022/12/02 12:18:46;;;;;;;107.43;23.35;;;5.30;99.90;;;;;;5039074;28;20370;-85
2022/12/02 12:21:31;;;;;;;109.00;22.27;;;5.20;99.90;;;;;;5038946;28;20185;-85
2022/12/02 12:24:22;;;;;;;108.75;23.50;;;5.20;99.90;;;;;;5040730;28;20191;-85
2022/12/02 12:27:03;;;;;;;106.22;22.20;;;5.20;99.90;;;;;;5039802;28;20173;-84
2022/12/02 12:29:37;;;;;;;108.63;22.73;;;5.20;99.90;;;;;;5039952;28;20231;-84
2022/12/02 12:32:04;;;;;;;96.53;21.15;;;5.20;99.90;;;;;;5039020;28;20197;-85
2022/12/02 12:34:33;;;;;;;105.13;24.38;;;5.20;99.90;;;;;;5040131;28;20180;-85
2022/12/02 12:37:04;;;;;;;109.28;22.30;;;5.20;99.90;;;;;;5038912;28;20154;-84
2022/12/02 12:39:30;;;;;;;101.30;22.23;;;5.20;99.90;;;;;;5039881;28;20519;-85
2022/12/02 12:41:58;;;;;;;107.43;21.70;;;5.20;99.90;;;;;;5040152;28;20168;-85
2022/12/02 12:44:24;;;;;;;108.72;22.60;;;5.20;99.90;;;;;;5038759;28;20227;-85
2022/12/02 12:46:50;;;;;;;102.60;22.27;;;5.30;99.90;;;;;;5038433;28;20173;-85
2022/12/02 12:49:16;;;;;;;109.87;22.93;;;5.30;99.90;;;;;;5039492;28;20196;-85